createdAt,value
2022-08-05T00:00:00.634Z,1.1
2022-08-05T00:05:00.218Z,1.1
2022-08-05T00:10:00.163Z,1.1
2022-08-05T00:15:00.174Z,1.1
2022-08-05T00:20:01.974Z,1.1
2022-08-05T00:25:01.165Z,1.1
2022-08-05T00:30:03.084Z,1.1
2022-08-05T00:35:06.364Z,1.1
2022-08-05T00:40:00.293Z,1.1
2022-08-05T00:45:00.215Z,1.1
2022-08-05T00:50:00.172Z,1.1
2022-08-05T00:55:00.160Z,1.1
2022-08-05T01:00:00.180Z,1.1
2022-08-05T01:05:00.177Z,1.1
2022-08-05T01:10:00.213Z,1.1
2022-08-05T01:15:00.170Z,1.1
2022-08-05T01:20:02.971Z,1.1
2022-08-05T01:25:00.178Z,1.1
2022-08-05T01:30:00.175Z,1.1
2022-08-05T01:35:00.179Z,1.1
2022-08-05T01:40:00.255Z,1.1
2022-08-05T01:45:00.170Z,1.1
2022-08-05T01:50:03.069Z,1.1
2022-08-05T01:55:00.449Z,1.1
2022-08-05T02:00:00.212Z,1.1
2022-08-05T02:05:00.383Z,1.1
2022-08-05T02:10:00.416Z,1.1
2022-08-05T02:15:00.165Z,1.1
2022-08-05T02:20:00.173Z,1.1
2022-08-05T02:25:00.378Z,1.1
2022-08-05T02:30:00.960Z,1.1
2022-08-05T02:35:01.985Z,1.1
2022-08-05T02:40:00.179Z,1.1
2022-08-05T02:45:00.163Z,1.1
2022-08-05T02:50:00.179Z,1.1
2022-08-05T02:55:02.014Z,1.1
2022-08-05T03:00:00.176Z,1.1
2022-08-05T03:05:00.178Z,1.1
2022-08-05T03:10:00.174Z,1.1
2022-08-05T03:15:00.164Z,1.1
2022-08-05T03:20:00.169Z,1.1
2022-08-05T03:25:11.680Z,1.1
2022-08-05T03:30:08.309Z,1.1
2022-08-05T03:35:00.169Z,1.1
2022-08-05T03:40:01.744Z,1.4
2022-08-05T03:45:01.857Z,3.4
2022-08-05T03:50:00.173Z,7.5
2022-08-05T03:56:03.680Z,13.4
2022-08-05T04:00:00.174Z,19.4
2022-08-05T04:05:00.167Z,27.8
2022-08-05T04:10:02.903Z,41.7
2022-08-05T04:15:00.182Z,70.6
2022-08-05T04:20:00.165Z,106
2022-08-05T04:25:00.169Z,143
2022-08-05T04:30:00.179Z,217.3
2022-08-05T04:35:00.184Z,282.7
2022-08-05T04:40:00.184Z,311.1
2022-08-05T04:45:01.052Z,376.7
2022-08-05T04:50:06.533Z,552.4
2022-08-05T04:55:00.165Z,545.8
2022-08-05T05:00:00.173Z,526.6
2022-08-05T05:05:02.132Z,532.9
2022-08-05T05:10:02.214Z,559
2022-08-05T05:15:03.878Z,607.8
2022-08-05T05:20:00.305Z,660.9
2022-08-05T05:25:01.327Z,736
2022-08-05T05:30:04.303Z,859.8
2022-08-05T05:35:00.170Z,1079.1
2022-08-05T05:40:00.170Z,1620.5
2022-08-05T05:45:00.161Z,1826.4
2022-08-05T05:50:01.633Z,1526.4
2022-08-05T05:55:00.164Z,1322.4
2022-08-05T06:00:00.198Z,1291.2
2022-08-05T06:10:04.789Z,1938.9
2022-08-05T06:15:00.164Z,1962.2
2022-08-05T06:20:00.229Z,2009.8
2022-08-05T06:25:00.207Z,1848.4
2022-08-05T06:30:04.150Z,1679.7
2022-08-05T06:35:00.182Z,1455.2
2022-08-05T06:40:00.188Z,1354.4
2022-08-05T06:45:00.179Z,1403.9
2022-08-05T06:50:04.934Z,1437.9
2022-08-05T06:55:00.171Z,1490.4
2022-08-05T07:00:00.176Z,1526.4
2022-08-05T07:05:00.169Z,1563.4
2022-08-05T07:10:03.272Z,1582.3
2022-08-05T07:15:00.157Z,1640
2022-08-05T07:25:22.995Z,1338.3
2022-08-05T07:30:25.542Z,1762
2022-08-05T07:35:00.173Z,1804.7
2022-08-05T07:40:04.324Z,1962.2
2022-08-05T07:45:00.168Z,2108.2
2022-08-05T07:50:00.165Z,2292.3
2022-08-05T07:55:00.163Z,2404.6
2022-08-05T08:00:00.173Z,2710.1
2022-08-05T08:05:00.363Z,2775.6
2022-08-05T08:10:00.170Z,2877.1
2022-08-05T08:15:02.673Z,3018
2022-08-05T08:20:21.051Z,3091.1
2022-08-05T08:25:03.374Z,3204.1
2022-08-05T08:30:06.115Z,3165.8
2022-08-05T08:35:00.167Z,3242.6
2022-08-05T08:40:00.342Z,3281.6
2022-08-05T08:45:22.306Z,3281.6
2022-08-05T08:50:18.081Z,3442.3
2022-08-05T08:55:00.162Z,3242.6
2022-08-05T09:00:00.188Z,3525.6
2022-08-05T09:05:16.501Z,3611.1
2022-08-05T09:10:00.170Z,3879.6
2022-08-05T09:15:05.842Z,4372.4
2022-08-05T09:20:02.482Z,4021.3
2022-08-05T09:25:00.296Z,4811.5
2022-08-05T09:30:03.393Z,5358.2
2022-08-05T09:35:00.247Z,6410.8
2022-08-05T09:40:00.287Z,6038.9
2022-08-05T09:45:17.657Z,4218.4
2022-08-05T09:50:02.073Z,2677.9
2022-08-05T09:55:00.186Z,3742.9
2022-08-05T10:00:02.657Z,3654.5
2022-08-05T10:05:00.168Z,3654.5
2022-08-05T10:10:13.918Z,3973.5
2022-08-05T10:15:01.431Z,4021.3
2022-08-05T10:20:04.504Z,4118.8
2022-08-05T10:25:00.178Z,4372.4
2022-08-05T10:30:42.021Z,5487.9
2022-08-05T10:35:00.932Z,5967.1
2022-08-05T10:40:16.848Z,6410.8
2022-08-05T10:45:00.162Z,5896.2
2022-08-05T10:50:31.589Z,4869.3
2022-08-05T10:55:00.188Z,6970.7
2022-08-05T11:00:03.062Z,2211.5
2022-08-05T11:05:00.332Z,3788
2022-08-05T11:10:04.006Z,4320.5
2022-08-05T11:15:11.769Z,4269.1
2022-08-05T11:20:10.721Z,2552.8
2022-08-05T11:25:16.615Z,4478.2
2022-08-05T11:30:00.220Z,4320.5
2022-08-05T11:35:00.181Z,4372.4
2022-08-05T11:40:03.536Z,4425
2022-08-05T11:45:00.177Z,4425
2022-08-05T11:50:00.183Z,4532.1
2022-08-05T11:55:07.069Z,4478.2
2022-08-05T12:00:00.177Z,4586.8
2022-08-05T12:05:00.501Z,4642
2022-08-05T12:10:05.948Z,4697.8
2022-08-05T12:15:00.169Z,4811.5
2022-08-05T12:20:16.691Z,5047.1
2022-08-05T12:25:00.177Z,4927.9
2022-08-05T12:30:00.169Z,5169.5
2022-08-05T12:35:00.184Z,5896.2
2022-08-05T12:40:03.506Z,6410.8
2022-08-05T12:45:00.188Z,5756.7
2022-08-05T12:50:01.954Z,6566.3
2022-08-05T12:55:00.170Z,6038.9
2022-08-05T13:01:57.693Z,5896.2
2022-08-05T13:05:00.167Z,6645.2
2022-08-05T13:10:00.181Z,7225.2
2022-08-05T13:15:05.277Z,7312.1
2022-08-05T13:20:00.187Z,8340.5
2022-08-05T13:25:00.870Z,4869.3
2022-08-05T13:30:32.788Z,5358.2
2022-08-05T13:35:00.170Z,4869.3
2022-08-05T13:40:15.212Z,4987.1
2022-08-05T13:45:00.174Z,5487.9
2022-08-05T13:50:00.177Z,4478.2
2022-08-05T13:55:01.173Z,4869.3
2022-08-05T14:00:02.041Z,4320.5
2022-08-05T14:05:00.817Z,4218.4
2022-08-05T14:10:00.170Z,4218.4
2022-08-05T14:15:00.188Z,4218.4
2022-08-05T14:20:04.751Z,4218.4
2022-08-05T14:25:00.171Z,4425
2022-08-05T14:30:00.162Z,4987.1
2022-08-05T14:35:00.168Z,5107.8
2022-08-05T14:40:00.335Z,6806
2022-08-05T14:45:00.177Z,5967.1
2022-08-05T14:50:05.833Z,6410.8
2022-08-05T14:55:00.166Z,6334.7
2022-08-05T15:00:00.200Z,5967.1
2022-08-05T15:05:00.174Z,6645.2
2022-08-05T15:10:01.578Z,4987.1
2022-08-05T15:15:00.177Z,4425
2022-08-05T15:20:00.192Z,5422.7
2022-08-05T15:25:00.221Z,5688.3
2022-08-05T15:30:00.321Z,6487.9
2022-08-05T15:35:04.123Z,5358.2
2022-08-05T15:40:59.935Z,2911.7
2022-08-05T15:45:00.202Z,1132
2022-08-05T15:50:00.299Z,819.6
2022-08-05T15:55:00.183Z,790.8
2022-08-05T16:00:00.169Z,1322.4
2022-08-05T16:05:00.182Z,2058.4
2022-08-05T16:10:00.203Z,1620.5
2022-08-05T16:15:00.175Z,1245.7
2022-08-05T16:20:04.842Z,2238.1
2022-08-05T16:25:00.180Z,2677.9
2022-08-05T16:30:00.166Z,1762
2022-08-05T16:35:00.181Z,1230.8
2022-08-05T16:40:04.312Z,1004.4
2022-08-05T16:45:00.173Z,637.6
2022-08-05T16:50:00.175Z,685.1
2022-08-05T16:55:00.185Z,2677.9
2022-08-05T17:00:01.571Z,6410.8
2022-08-05T17:05:00.193Z,5967.1
2022-08-05T17:10:00.292Z,4869.3
2022-08-05T17:15:00.181Z,4372.4
2022-08-05T17:20:00.178Z,3204.1
2022-08-05T17:25:00.367Z,1741
2022-08-05T17:30:02.174Z,946.1
2022-08-05T17:35:00.168Z,772.1
2022-08-05T17:40:00.542Z,593.4
2022-08-05T17:45:00.197Z,381.3
2022-08-05T17:50:10.449Z,279.4
2022-08-05T17:55:00.176Z,171.1
2022-08-05T18:00:05.541Z,89.7
2022-08-05T18:05:00.286Z,74.1
2022-08-05T18:10:02.045Z,75.9
2022-08-05T18:15:00.183Z,42.2
2022-08-05T18:20:00.171Z,31.3
2022-08-05T18:25:00.164Z,20.1
2022-08-05T18:30:00.210Z,14.1
2022-08-05T18:35:00.174Z,10.3
2022-08-05T18:41:50.773Z,6.9
2022-08-05T18:45:00.255Z,4.7
2022-08-05T18:50:00.499Z,6.6
2022-08-05T18:55:00.178Z,6.3
2022-08-05T19:00:03.129Z,2.7
2022-08-05T19:05:01.444Z,1.2
2022-08-05T19:10:00.170Z,1.1
2022-08-05T19:15:02.654Z,1.1
2022-08-05T19:20:00.163Z,1.1
2022-08-05T19:25:00.179Z,1.1
2022-08-05T19:30:00.180Z,1.1
2022-08-05T19:35:00.167Z,1.1
2022-08-05T19:40:00.395Z,1.1
2022-08-05T19:45:00.170Z,1.1
2022-08-05T19:50:00.187Z,1.1
2022-08-05T19:55:00.461Z,1.1
2022-08-05T20:00:04.275Z,1.1
2022-08-05T20:05:00.409Z,1.1
2022-08-05T20:10:00.326Z,1.1
2022-08-05T20:15:00.299Z,1.1
2022-08-05T20:20:00.283Z,1.1
2022-08-05T20:25:00.213Z,1.1
2022-08-05T20:30:00.247Z,1.1
2022-08-05T20:35:00.177Z,1.1
2022-08-05T20:40:00.401Z,1.1
2022-08-05T20:45:00.683Z,1.1
2022-08-05T20:50:00.177Z,1.1
2022-08-05T20:55:56.246Z,1.1
2022-08-05T21:00:20.979Z,1.1
2022-08-05T21:05:01.266Z,1.1
2022-08-05T21:10:00.169Z,1.1
2022-08-05T21:15:00.181Z,1.1
2022-08-05T21:20:04.284Z,1.1
2022-08-05T21:25:00.175Z,1.1
2022-08-05T21:30:02.002Z,1.1
2022-08-05T21:35:16.799Z,1.1
2022-08-05T21:40:00.163Z,1.1
2022-08-05T21:45:00.170Z,1.1
2022-08-05T21:50:01.885Z,1.1
2022-08-05T21:55:06.311Z,1.1
2022-08-05T22:00:06.295Z,1.1
2022-08-05T22:05:00.197Z,1.1
2022-08-05T22:10:00.182Z,1.1
2022-08-05T22:15:00.168Z,1.1
2022-08-05T22:20:13.671Z,1.1
2022-08-05T22:25:00.184Z,1.1
2022-08-05T22:30:00.172Z,1.1
2022-08-05T22:35:00.168Z,1.1
2022-08-05T22:40:00.350Z,1.1
2022-08-05T22:45:00.173Z,1.1
2022-08-05T22:50:21.509Z,1.1
2022-08-05T22:55:00.196Z,1.1
2022-08-05T23:00:00.176Z,1.1
2022-08-05T23:05:01.956Z,1.1
2022-08-05T23:10:02.086Z,1.1
2022-08-05T23:15:00.177Z,1.1
2022-08-05T23:20:00.167Z,1.1
2022-08-05T23:25:00.171Z,1.1
2022-08-05T23:30:00.168Z,1.1
2022-08-05T23:35:00.182Z,1.1
2022-08-05T23:40:00.347Z,1.1
2022-08-05T23:45:00.205Z,1.1
2022-08-05T23:50:00.178Z,1.1
2022-08-05T23:55:00.186Z,1.1
